Santa Barbara, Brazil
Current Conditions -  °F | °C
As of 5:00 AM on Tuesday 21 Oct 2014 (Local Time) from SBCF Reporting Station
Clear Clear  
Wind Chill: 68°   Ceiling: Unl
Heat Index: 68°   Visibility: 6mi
Dew Point: 63°   Wind: 8mph
Humidity: 83%   Direction: 140°SE
Pressure: 30.06"   Gusts: NA
Location:  19.96°S, 43.42°W
Report Text: SBCF 210700Z 14007KT CAVOK 20/17 Q1018
Loading
Personal Weather Stations






























Interactive Weather Map
Tropical Storm Tracking
New forecast layout! Learn more

10-Day Weather Forecast

Advertisements
Track Severe Weather on mobile